sensor_id;sensor_type;location;lat;lon;timestamp;P1;durP1;ratioP1;P2;durP2;ratioP2
34836;SDS011;21053;50.848;4.652;2023-10-19T00:04:49;150.20;;;135.32;;
34836;SDS011;21053;50.848;4.652;2023-10-19T00:07:18;116.70;;;105.80;;
34836;SDS011;21053;50.848;4.652;2023-10-19T00:09:54;111.97;;;101.82;;
34836;SDS011;21053;50.848;4.652;2023-10-19T00:12:35;130.43;;;118.03;;
34836;SDS011;21053;50.848;4.652;2023-10-19T00:21:41;111.13;;;100.88;;
34836;SDS011;21053;50.848;4.652;2023-10-19T00:24:25;106.25;;;96.55;;
34836;SDS011;21053;50.848;4.652;2023-10-19T00:26:55;89.63;;;81.43;;
34836;SDS011;21053;50.848;4.652;2023-10-19T00:29:30;105.07;;;95.55;;
34836;SDS011;21053;50.848;4.652;2023-10-19T00:32:07;126.10;;;114.55;;
34836;SDS011;21053;50.848;4.652;2023-10-19T00:34:55;121.68;;;110.35;;
34836;SDS011;21053;50.848;4.652;2023-10-19T00:37:48;110.20;;;99.80;;
34836;SDS011;21053;50.848;4.652;2023-10-19T00:40:38;102.00;;;92.82;;
34836;SDS011;21053;50.848;4.652;2023-10-19T00:43:15;93.00;;;84.63;;
34836;SDS011;21053;50.848;4.652;2023-10-19T00:46:07;127.93;;;115.88;;
34836;SDS011;21053;50.848;4.652;2023-10-19T00:49:03;100.45;;;91.35;;
34836;SDS011;21053;50.848;4.652;2023-10-19T00:51:53;95.50;;;86.93;;
34836;SDS011;21053;50.848;4.652;2023-10-19T00:54:59;87.43;;;79.70;;
34836;SDS011;21053;50.848;4.652;2023-10-19T01:00:23;95.20;;;86.68;;
34836;SDS011;21053;50.848;4.652;2023-10-19T01:03:01;118.40;;;107.55;;
34836;SDS011;21053;50.848;4.652;2023-10-19T01:05:34;103.32;;;93.97;;
34836;SDS011;21053;50.848;4.652;2023-10-19T01:11:17;91.32;;;83.25;;
34836;SDS011;21053;50.848;4.652;2023-10-19T01:13:57;111.13;;;101.20;;
34836;SDS011;21053;50.848;4.652;2023-10-19T01:16:30;107.30;;;97.70;;
34836;SDS011;21053;50.848;4.652;2023-10-19T01:21:39;95.20;;;86.97;;
34836;SDS011;21053;50.848;4.652;2023-10-19T01:24:30;98.13;;;89.55;;
34836;SDS011;21053;50.848;4.652;2023-10-19T01:27:20;91.80;;;83.85;;
34836;SDS011;21053;50.848;4.652;2023-10-19T01:29:56;93.82;;;85.60;;
34836;SDS011;21053;50.848;4.652;2023-10-19T01:32:52;87.97;;;80.00;;
34836;SDS011;21053;50.848;4.652;2023-10-19T01:41:06;82.88;;;75.57;;
34836;SDS011;21053;50.848;4.652;2023-10-19T01:46:19;89.38;;;81.53;;
34836;SDS011;21053;50.848;4.652;2023-10-19T01:49:16;99.68;;;90.88;;
34836;SDS011;21053;50.848;4.652;2023-10-19T01:52:03;99.20;;;90.43;;
34836;SDS011;21053;50.848;4.652;2023-10-19T01:55:04;93.43;;;85.30;;
34836;SDS011;21053;50.848;4.652;2023-10-19T01:57:46;108.05;;;98.53;;
34836;SDS011;21053;50.848;4.652;2023-10-19T02:04:12;107.32;;;97.88;;
34836;SDS011;21053;50.848;4.652;2023-10-19T02:09:17;75.80;;;69.20;;
34836;SDS011;21053;50.848;4.652;2023-10-19T02:12:25;83.63;;;76.38;;
34836;SDS011;21053;50.848;4.652;2023-10-19T02:14:57;92.00;;;83.18;;
34836;SDS011;21053;50.848;4.652;2023-10-19T02:17:51;87.43;;;79.70;;
34836;SDS011;21053;50.848;4.652;2023-10-19T02:20:23;88.97;;;81.05;;
34836;SDS011;21053;50.848;4.652;2023-10-19T02:26:18;91.90;;;84.07;;
34836;SDS011;21053;50.848;4.652;2023-10-19T02:29:18;84.90;;;77.28;;
34836;SDS011;21053;50.848;4.652;2023-10-19T02:31:46;91.63;;;83.57;;
34836;SDS011;21053;50.848;4.652;2023-10-19T02:36:58;72.03;;;65.75;;
34836;SDS011;21053;50.848;4.652;2023-10-19T02:39:55;86.28;;;78.65;;
34836;SDS011;21053;50.848;4.652;2023-10-19T02:42:28;91.82;;;83.85;;
34836;SDS011;21053;50.848;4.652;2023-10-19T02:47:51;71.88;;;64.53;;
34836;SDS011;21053;50.848;4.652;2023-10-19T02:50:22;82.55;;;74.63;;
34836;SDS011;21053;50.848;4.652;2023-10-19T02:52:53;93.38;;;85.05;;
34836;SDS011;21053;50.848;4.652;2023-10-19T02:55:30;95.72;;;87.25;;
34836;SDS011;21053;50.848;4.652;2023-10-19T02:57:57;85.93;;;78.25;;
34836;SDS011;21053;50.848;4.652;2023-10-19T03:00:29;82.10;;;74.97;;
34836;SDS011;21053;50.848;4.652;2023-10-19T03:02:59;82.35;;;75.00;;
34836;SDS011;21053;50.848;4.652;2023-10-19T03:05:25;82.45;;;74.75;;
34836;SDS011;21053;50.848;4.652;2023-10-19T03:07:53;85.32;;;77.97;;
34836;SDS011;21053;50.848;4.652;2023-10-19T03:10:26;83.97;;;75.82;;
34836;SDS011;21053;50.848;4.652;2023-10-19T03:13:27;80.15;;;73.03;;
34836;SDS011;21053;50.848;4.652;2023-10-19T03:15:56;85.32;;;77.78;;
34836;SDS011;21053;50.848;4.652;2023-10-19T03:18:25;90.25;;;82.28;;
34836;SDS011;21053;50.848;4.652;2023-10-19T03:20:52;73.68;;;67.28;;
34836;SDS011;21053;50.848;4.652;2023-10-19T03:23:25;99.80;;;91.00;;
34836;SDS011;21053;50.848;4.652;2023-10-19T03:26:12;80.38;;;73.38;;
34836;SDS011;21053;50.848;4.652;2023-10-19T03:28:44;79.22;;;72.38;;
34836;SDS011;21053;50.848;4.652;2023-10-19T03:31:16;81.15;;;73.95;;
34836;SDS011;21053;50.848;4.652;2023-10-19T03:36:50;79.35;;;72.55;;
34836;SDS011;21053;50.848;4.652;2023-10-19T03:39:21;90.07;;;81.55;;
34836;SDS011;21053;50.848;4.652;2023-10-19T03:42:07;84.05;;;76.80;;
34836;SDS011;21053;50.848;4.652;2023-10-19T03:44:45;94.82;;;86.15;;
34836;SDS011;21053;50.848;4.652;2023-10-19T03:47:19;79.00;;;71.97;;
34836;SDS011;21053;50.848;4.652;2023-10-19T03:49:55;80.80;;;73.72;;
34836;SDS011;21053;50.848;4.652;2023-10-19T03:55:01;84.90;;;76.93;;
34836;SDS011;21053;50.848;4.652;2023-10-19T03:57:36;78.60;;;71.55;;
34836;SDS011;21053;50.848;4.652;2023-10-19T04:00:27;82.28;;;75.07;;
34836;SDS011;21053;50.848;4.652;2023-10-19T04:05:35;97.03;;;88.55;;
34836;SDS011;21053;50.848;4.652;2023-10-19T04:10:53;84.20;;;76.53;;
34836;SDS011;21053;50.848;4.652;2023-10-19T04:13:53;92.63;;;84.32;;
34836;SDS011;21053;50.848;4.652;2023-10-19T04:16:27;66.88;;;60.67;;
34836;SDS011;21053;50.848;4.652;2023-10-19T04:18:53;84.57;;;77.03;;
34836;SDS011;21053;50.848;4.652;2023-10-19T04:21:20;82.13;;;74.85;;
34836;SDS011;21053;50.848;4.652;2023-10-19T04:23:46;74.55;;;67.72;;
34836;SDS011;21053;50.848;4.652;2023-10-19T04:26:12;89.45;;;81.47;;
34836;SDS011;21053;50.848;4.652;2023-10-19T04:28:45;93.35;;;85.05;;
34836;SDS011;21053;50.848;4.652;2023-10-19T04:31:16;92.38;;;83.95;;
34836;SDS011;21053;50.848;4.652;2023-10-19T04:39:10;95.28;;;86.82;;
34836;SDS011;21053;50.848;4.652;2023-10-19T04:41:44;110.93;;;100.63;;
34836;SDS011;21053;50.848;4.652;2023-10-19T04:46:44;89.85;;;81.82;;
34836;SDS011;21053;50.848;4.652;2023-10-19T04:49:14;90.55;;;82.43;;
34836;SDS011;21053;50.848;4.652;2023-10-19T04:54:13;106.50;;;96.88;;
34836;SDS011;21053;50.848;4.652;2023-10-19T04:56:40;96.10;;;87.38;;
34836;SDS011;21053;50.848;4.652;2023-10-19T04:59:11;109.63;;;99.68;;
34836;SDS011;21053;50.848;4.652;2023-10-19T05:01:37;88.47;;;80.70;;
34836;SDS011;21053;50.848;4.652;2023-10-19T05:04:07;87.35;;;79.72;;
34836;SDS011;21053;50.848;4.652;2023-10-19T05:09:06;93.65;;;85.20;;
34836;SDS011;21053;50.848;4.652;2023-10-19T05:14:06;94.28;;;85.95;;
34836;SDS011;21053;50.848;4.652;2023-10-19T05:16:52;84.97;;;77.50;;
34836;SDS011;21053;50.848;4.652;2023-10-19T05:19:19;90.45;;;82.32;;
34836;SDS011;21053;50.848;4.652;2023-10-19T05:21:49;97.15;;;88.43;;
34836;SDS011;21053;50.848;4.652;2023-10-19T05:24:15;94.68;;;86.05;;
34836;SDS011;21053;50.848;4.652;2023-10-19T05:26:48;94.35;;;85.90;;
34836;SDS011;21053;50.848;4.652;2023-10-19T05:29:14;97.40;;;88.32;;
34836;SDS011;21053;50.848;4.652;2023-10-19T05:31:46;84.20;;;75.93;;
34836;SDS011;21053;50.848;4.652;2023-10-19T05:34:24;89.43;;;81.38;;
34836;SDS011;21053;50.848;4.652;2023-10-19T05:36:54;83.28;;;75.75;;
34836;SDS011;21053;50.848;4.652;2023-10-19T05:39:24;89.78;;;81.80;;
34836;SDS011;21053;50.848;4.652;2023-10-19T05:41:56;92.28;;;84.13;;
34836;SDS011;21053;50.848;4.652;2023-10-19T05:44:29;99.90;;;90.40;;
34836;SDS011;21053;50.848;4.652;2023-10-19T05:49:27;101.82;;;92.75;;
34836;SDS011;21053;50.848;4.652;2023-10-19T05:54:25;87.25;;;78.60;;
34836;SDS011;21053;50.848;4.652;2023-10-19T05:57:04;78.68;;;71.75;;
34836;SDS011;21053;50.848;4.652;2023-10-19T05:59:34;76.85;;;69.43;;
34836;SDS011;21053;50.848;4.652;2023-10-19T06:09:31;86.13;;;78.43;;
34836;SDS011;21053;50.848;4.652;2023-10-19T06:11:59;71.45;;;65.05;;
34836;SDS011;21053;50.848;4.652;2023-10-19T06:14:29;86.78;;;79.00;;
34836;SDS011;21053;50.848;4.652;2023-10-19T06:19:36;83.45;;;76.07;;
34836;SDS011;21053;50.848;4.652;2023-10-19T06:39:23;66.25;;;60.25;;
34836;SDS011;21053;50.848;4.652;2023-10-19T06:44:47;73.78;;;67.25;;
34836;SDS011;21053;50.848;4.652;2023-10-19T06:47:23;68.05;;;62.10;;
34836;SDS011;21053;50.848;4.652;2023-10-19T06:58:37;70.90;;;64.68;;
34836;SDS011;21053;50.848;4.652;2023-10-19T07:01:09;100.65;;;91.57;;
34836;SDS011;21053;50.848;4.652;2023-10-19T07:03:38;79.55;;;72.72;;
34836;SDS011;21053;50.848;4.652;2023-10-19T07:06:09;78.35;;;71.60;;
34836;SDS011;21053;50.848;4.652;2023-10-19T07:08:40;81.47;;;73.97;;
34836;SDS011;21053;50.848;4.652;2023-10-19T07:11:10;75.65;;;68.82;;
34836;SDS011;21053;50.848;4.652;2023-10-19T07:16:05;88.53;;;80.43;;
34836;SDS011;21053;50.848;4.652;2023-10-19T07:18:34;89.53;;;81.53;;
34836;SDS011;21053;50.848;4.652;2023-10-19T07:21:04;86.97;;;79.28;;
34836;SDS011;21053;50.848;4.652;2023-10-19T07:23:31;94.07;;;85.93;;
34836;SDS011;21053;50.848;4.652;2023-10-19T07:25:58;96.68;;;88.35;;
34836;SDS011;21053;50.848;4.652;2023-10-19T07:28:28;70.78;;;64.45;;
34836;SDS011;21053;50.848;4.652;2023-10-19T07:30:53;95.93;;;87.22;;
34836;SDS011;21053;50.848;4.652;2023-10-19T07:33:22;89.45;;;81.35;;
34836;SDS011;21053;50.848;4.652;2023-10-19T07:35:55;86.07;;;78.50;;
34836;SDS011;21053;50.848;4.652;2023-10-19T07:38:22;85.70;;;78.07;;
34836;SDS011;21053;50.848;4.652;2023-10-19T07:41:00;88.50;;;80.70;;
34836;SDS011;21053;50.848;4.652;2023-10-19T07:43:32;88.72;;;81.00;;
34836;SDS011;21053;50.848;4.652;2023-10-19T07:48:30;100.32;;;91.32;;
34836;SDS011;21053;50.848;4.652;2023-10-19T07:51:00;90.50;;;82.25;;
34836;SDS011;21053;50.848;4.652;2023-10-19T07:53:28;90.75;;;82.30;;
34836;SDS011;21053;50.848;4.652;2023-10-19T07:55:58;100.38;;;91.43;;
34836;SDS011;21053;50.848;4.652;2023-10-19T07:58:34;106.72;;;97.15;;
34836;SDS011;21053;50.848;4.652;2023-10-19T08:01:02;102.60;;;93.40;;
34836;SDS011;21053;50.848;4.652;2023-10-19T08:03:31;89.88;;;80.68;;
34836;SDS011;21053;50.848;4.652;2023-10-19T08:05:59;128.10;;;116.50;;
34836;SDS011;21053;50.848;4.652;2023-10-19T08:08:31;127.03;;;115.82;;
34836;SDS011;21053;50.848;4.652;2023-10-19T08:11:00;102.68;;;93.82;;
34836;SDS011;21053;50.848;4.652;2023-10-19T08:13:27;108.57;;;97.82;;
34836;SDS011;21053;50.848;4.652;2023-10-19T08:15:52;101.70;;;92.80;;
34836;SDS011;21053;50.848;4.652;2023-10-19T08:18:21;104.93;;;95.40;;
34836;SDS011;21053;50.848;4.652;2023-10-19T08:20:47;124.28;;;113.35;;
34836;SDS011;21053;50.848;4.652;2023-10-19T08:23:16;125.45;;;114.35;;
34836;SDS011;21053;50.848;4.652;2023-10-19T08:28:20;134.70;;;122.82;;
34836;SDS011;21053;50.848;4.652;2023-10-19T08:30:47;127.10;;;116.25;;
34836;SDS011;21053;50.848;4.652;2023-10-19T08:35:52;106.07;;;97.28;;
34836;SDS011;21053;50.848;4.652;2023-10-19T08:40:31;93.00;;;85.13;;
34836;SDS011;21053;50.848;4.652;2023-10-19T08:43:00;104.30;;;95.65;;
34836;SDS011;21053;50.848;4.652;2023-10-19T08:47:59;92.25;;;84.15;;
34836;SDS011;21053;50.848;4.652;2023-10-19T08:50:32;96.45;;;87.95;;
34836;SDS011;21053;50.848;4.652;2023-10-19T08:55:32;79.60;;;73.00;;
34836;SDS011;21053;50.848;4.652;2023-10-19T08:57:59;72.22;;;66.07;;
34836;SDS011;21053;50.848;4.652;2023-10-19T09:03:24;125.50;;;114.28;;
34836;SDS011;21053;50.848;4.652;2023-10-19T09:05:54;121.82;;;110.82;;
34836;SDS011;21053;50.848;4.652;2023-10-19T09:08:23;112.35;;;102.22;;
34836;SDS011;21053;50.848;4.652;2023-10-19T09:10:49;125.20;;;113.68;;
34836;SDS011;21053;50.848;4.652;2023-10-19T09:15:51;111.95;;;102.15;;
34836;SDS011;21053;50.848;4.652;2023-10-19T09:18:26;134.70;;;122.83;;
34836;SDS011;21053;50.848;4.652;2023-10-19T09:20:54;162.30;;;147.75;;
34836;SDS011;21053;50.848;4.652;2023-10-19T09:23:40;121.47;;;109.32;;
34836;SDS011;21053;50.848;4.652;2023-10-19T09:26:13;160.02;;;145.10;;
34836;SDS011;21053;50.848;4.652;2023-10-19T09:28:48;119.38;;;107.65;;
34836;SDS011;21053;50.848;4.652;2023-10-19T09:31:25;122.72;;;111.20;;
34836;SDS011;21053;50.848;4.652;2023-10-19T09:33:52;150.63;;;136.73;;
34836;SDS011;21053;50.848;4.652;2023-10-19T09:39:11;172.02;;;155.88;;
34836;SDS011;21053;50.848;4.652;2023-10-19T09:41:38;165.15;;;149.60;;
34836;SDS011;21053;50.848;4.652;2023-10-19T09:46:51;168.55;;;152.80;;
34836;SDS011;21053;50.848;4.652;2023-10-19T09:49:23;180.75;;;163.90;;
34836;SDS011;21053;50.848;4.652;2023-10-19T09:52:03;201.15;;;182.60;;
34836;SDS011;21053;50.848;4.652;2023-10-19T09:54:54;187.70;;;170.43;;
34836;SDS011;21053;50.848;4.652;2023-10-19T10:00:49;163.48;;;148.50;;
34836;SDS011;21053;50.848;4.652;2023-10-19T10:09:59;171.82;;;155.82;;
34836;SDS011;21053;50.848;4.652;2023-10-19T10:12:31;187.65;;;170.93;;
34836;SDS011;21053;50.848;4.652;2023-10-19T10:15:04;182.65;;;165.93;;
34836;SDS011;21053;50.848;4.652;2023-10-19T10:23:33;161.98;;;148.20;;
34836;SDS011;21053;50.848;4.652;2023-10-19T10:26:20;147.60;;;135.18;;
34836;SDS011;21053;50.848;4.652;2023-10-19T10:37:06;101.07;;;93.03;;
34836;SDS011;21053;50.848;4.652;2023-10-19T10:39:34;83.97;;;77.43;;
34836;SDS011;21053;50.848;4.652;2023-10-19T10:42:06;83.57;;;76.82;;
34836;SDS011;21053;50.848;4.652;2023-10-19T10:44:42;91.82;;;84.47;;
34836;SDS011;21053;50.848;4.652;2023-10-19T10:47:29;92.30;;;84.60;;
34836;SDS011;21053;50.848;4.652;2023-10-19T10:49:57;83.97;;;77.20;;
34836;SDS011;21053;50.848;4.652;2023-10-19T10:52:37;93.05;;;85.75;;
34836;SDS011;21053;50.848;4.652;2023-10-19T10:55:14;96.38;;;88.75;;
34836;SDS011;21053;50.848;4.652;2023-10-19T10:57:44;120.45;;;110.88;;
34836;SDS011;21053;50.848;4.652;2023-10-19T11:00:19;121.97;;;112.00;;
34836;SDS011;21053;50.848;4.652;2023-10-19T11:02:59;122.07;;;112.38;;
34836;SDS011;21053;50.848;4.652;2023-10-19T11:05:38;117.25;;;107.75;;
34836;SDS011;21053;50.848;4.652;2023-10-19T11:08:16;92.38;;;85.03;;
34836;SDS011;21053;50.848;4.652;2023-10-19T11:13:17;106.95;;;98.00;;
34836;SDS011;21053;50.848;4.652;2023-10-19T11:15:52;121.13;;;111.03;;
34836;SDS011;21053;50.848;4.652;2023-10-19T11:21:26;137.40;;;125.20;;
34836;SDS011;21053;50.848;4.652;2023-10-19T11:24:20;134.00;;;121.85;;
34836;SDS011;21053;50.848;4.652;2023-10-19T11:29:31;159.88;;;144.65;;
34836;SDS011;21053;50.848;4.652;2023-10-19T11:31:57;164.57;;;149.18;;
34836;SDS011;21053;50.848;4.652;2023-10-19T11:34:28;193.27;;;174.65;;
34836;SDS011;21053;50.848;4.652;2023-10-19T11:36:56;204.07;;;184.70;;
34836;SDS011;21053;50.848;4.652;2023-10-19T11:39:24;156.57;;;141.55;;
34836;SDS011;21053;50.848;4.652;2023-10-19T11:41:56;163.98;;;148.13;;
34836;SDS011;21053;50.848;4.652;2023-10-19T11:44:28;182.70;;;165.30;;
34836;SDS011;21053;50.848;4.652;2023-10-19T11:46:56;221.82;;;200.70;;
34836;SDS011;21053;50.848;4.652;2023-10-19T11:49:25;209.98;;;190.23;;
34836;SDS011;21053;50.848;4.652;2023-10-19T11:51:52;189.32;;;171.23;;
34836;SDS011;21053;50.848;4.652;2023-10-19T11:54:22;175.60;;;158.43;;
34836;SDS011;21053;50.848;4.652;2023-10-19T11:56:51;201.15;;;182.05;;
34836;SDS011;21053;50.848;4.652;2023-10-19T11:59:21;208.60;;;188.88;;
34836;SDS011;21053;50.848;4.652;2023-10-19T12:01:49;222.07;;;200.98;;
34836;SDS011;21053;50.848;4.652;2023-10-19T12:04:14;202.07;;;183.05;;
34836;SDS011;21053;50.848;4.652;2023-10-19T12:06:43;208.10;;;188.27;;
34836;SDS011;21053;50.848;4.652;2023-10-19T12:09:13;226.38;;;204.70;;
34836;SDS011;21053;50.848;4.652;2023-10-19T12:11:42;193.88;;;174.90;;
34836;SDS011;21053;50.848;4.652;2023-10-19T12:14:10;186.05;;;169.05;;
34836;SDS011;21053;50.848;4.652;2023-10-19T12:16:47;198.95;;;180.75;;
34836;SDS011;21053;50.848;4.652;2023-10-19T12:19:14;196.73;;;178.65;;
34836;SDS011;21053;50.848;4.652;2023-10-19T12:24:35;218.65;;;198.70;;
34836;SDS011;21053;50.848;4.652;2023-10-19T12:27:10;211.60;;;191.85;;
34836;SDS011;21053;50.848;4.652;2023-10-19T12:29:58;183.65;;;166.57;;
34836;SDS011;21053;50.848;4.652;2023-10-19T12:32:24;160.32;;;145.88;;
34836;SDS011;21053;50.848;4.652;2023-10-19T12:34:53;186.23;;;169.40;;
34836;SDS011;21053;50.848;4.652;2023-10-19T12:37:30;212.07;;;192.43;;
34836;SDS011;21053;50.848;4.652;2023-10-19T12:39:58;175.88;;;159.93;;
34836;SDS011;21053;50.848;4.652;2023-10-19T12:45:00;141.13;;;128.68;;
34836;SDS011;21053;50.848;4.652;2023-10-19T12:47:29;150.93;;;136.88;;
34836;SDS011;21053;50.848;4.652;2023-10-19T12:49:58;112.32;;;102.90;;
34836;SDS011;21053;50.848;4.652;2023-10-19T12:52:30;117.60;;;107.15;;
34836;SDS011;21053;50.848;4.652;2023-10-19T12:57:53;129.00;;;117.35;;
34836;SDS011;21053;50.848;4.652;2023-10-19T13:03:03;161.13;;;146.23;;
34836;SDS011;21053;50.848;4.652;2023-10-19T13:05:42;181.63;;;164.57;;
34836;SDS011;21053;50.848;4.652;2023-10-19T13:08:14;139.82;;;127.38;;
34836;SDS011;21053;50.848;4.652;2023-10-19T13:13:14;170.95;;;155.68;;
34836;SDS011;21053;50.848;4.652;2023-10-19T13:15:46;153.70;;;139.77;;
34836;SDS011;21053;50.848;4.652;2023-10-19T13:18:22;169.38;;;154.35;;
34836;SDS011;21053;50.848;4.652;2023-10-19T13:23:27;228.00;;;208.55;;
34836;SDS011;21053;50.848;4.652;2023-10-19T13:28:46;124.20;;;113.95;;
34836;SDS011;21053;50.848;4.652;2023-10-19T13:31:12;159.75;;;146.90;;
34836;SDS011;21053;50.848;4.652;2023-10-19T13:33:44;144.63;;;132.98;;
34836;SDS011;21053;50.848;4.652;2023-10-19T13:36:14;161.20;;;148.00;;
34836;SDS011;21053;50.848;4.652;2023-10-19T13:38:42;191.88;;;176.15;;
34836;SDS011;21053;50.848;4.652;2023-10-19T13:41:11;179.85;;;165.13;;
34836;SDS011;21053;50.848;4.652;2023-10-19T13:43:39;182.85;;;167.70;;
34836;SDS011;21053;50.848;4.652;2023-10-19T13:46:10;171.30;;;157.05;;
34836;SDS011;21053;50.848;4.652;2023-10-19T13:48:42;166.57;;;152.70;;
34836;SDS011;21053;50.848;4.652;2023-10-19T13:53:43;194.80;;;178.50;;
34836;SDS011;21053;50.848;4.652;2023-10-19T13:58:44;182.90;;;167.73;;
34836;SDS011;21053;50.848;4.652;2023-10-19T14:01:15;178.65;;;163.77;;
34836;SDS011;21053;50.848;4.652;2023-10-19T14:03:42;138.80;;;127.45;;
34836;SDS011;21053;50.848;4.652;2023-10-19T14:06:14;195.88;;;179.85;;
34836;SDS011;21053;50.848;4.652;2023-10-19T14:08:46;131.10;;;120.43;;
34836;SDS011;21053;50.848;4.652;2023-10-19T14:11:18;156.65;;;144.00;;
34836;SDS011;21053;50.848;4.652;2023-10-19T14:13:44;195.45;;;179.38;;
34836;SDS011;21053;50.848;4.652;2023-10-19T14:21:15;164.30;;;150.65;;
34836;SDS011;21053;50.848;4.652;2023-10-19T14:23:46;146.97;;;134.67;;
34836;SDS011;21053;50.848;4.652;2023-10-19T14:26:16;171.80;;;157.27;;
34836;SDS011;21053;50.848;4.652;2023-10-19T14:31:13;208.75;;;190.88;;
34836;SDS011;21053;50.848;4.652;2023-10-19T14:36:16;185.57;;;169.98;;
34836;SDS011;21053;50.848;4.652;2023-10-19T14:38:43;168.75;;;154.55;;
34836;SDS011;21053;50.848;4.652;2023-10-19T14:43:43;143.82;;;131.63;;
34836;SDS011;21053;50.848;4.652;2023-10-19T14:46:09;161.70;;;148.15;;
34836;SDS011;21053;50.848;4.652;2023-10-19T14:48:36;151.02;;;137.90;;
34836;SDS011;21053;50.848;4.652;2023-10-19T14:51:02;194.70;;;178.30;;
34836;SDS011;21053;50.848;4.652;2023-10-19T14:53:33;165.88;;;151.52;;
34836;SDS011;21053;50.848;4.652;2023-10-19T14:58:29;153.18;;;140.00;;
34836;SDS011;21053;50.848;4.652;2023-10-19T15:00:58;134.32;;;122.88;;
34836;SDS011;21053;50.848;4.652;2023-10-19T15:03:24;147.90;;;135.02;;
34836;SDS011;21053;50.848;4.652;2023-10-19T15:05:53;156.13;;;142.75;;
34836;SDS011;21053;50.848;4.652;2023-10-19T15:08:23;133.75;;;122.18;;
34836;SDS011;21053;50.848;4.652;2023-10-19T15:13:22;176.88;;;160.15;;
34836;SDS011;21053;50.848;4.652;2023-10-19T15:18:22;180.65;;;164.02;;
34836;SDS011;21053;50.848;4.652;2023-10-19T15:23:17;173.25;;;157.27;;
34836;SDS011;21053;50.848;4.652;2023-10-19T15:25:50;172.80;;;156.93;;
34836;SDS011;21053;50.848;4.652;2023-10-19T15:28:16;191.07;;;173.50;;
34836;SDS011;21053;50.848;4.652;2023-10-19T15:33:15;160.23;;;145.60;;
34836;SDS011;21053;50.848;4.652;2023-10-19T15:38:22;193.63;;;176.07;;
34836;SDS011;21053;50.848;4.652;2023-10-19T15:40:49;185.18;;;168.45;;
34836;SDS011;21053;50.848;4.652;2023-10-19T15:43:20;186.38;;;169.30;;
34836;SDS011;21053;50.848;4.652;2023-10-19T15:46:08;182.27;;;165.73;;
34836;SDS011;21053;50.848;4.652;2023-10-19T15:51:54;156.65;;;142.02;;
34836;SDS011;21053;50.848;4.652;2023-10-19T15:54:48;138.27;;;125.55;;
34836;SDS011;21053;50.848;4.652;2023-10-19T15:57:55;132.02;;;119.82;;
34836;SDS011;21053;50.848;4.652;2023-10-19T16:06:27;195.82;;;178.15;;
34836;SDS011;21053;50.848;4.652;2023-10-19T16:08:56;194.57;;;176.93;;
34836;SDS011;21053;50.848;4.652;2023-10-19T16:14:53;155.50;;;141.20;;
34836;SDS011;21053;50.848;4.652;2023-10-19T16:17:24;166.43;;;151.18;;
34836;SDS011;21053;50.848;4.652;2023-10-19T16:20:00;179.68;;;162.93;;
34836;SDS011;21053;50.848;4.652;2023-10-19T16:22:54;141.75;;;128.88;;
34836;SDS011;21053;50.848;4.652;2023-10-19T16:25:26;151.90;;;137.93;;
34836;SDS011;21053;50.848;4.652;2023-10-19T16:30:31;173.57;;;157.80;;
34836;SDS011;21053;50.848;4.652;2023-10-19T16:33:01;161.02;;;146.43;;
34836;SDS011;21053;50.848;4.652;2023-10-19T16:35:38;173.25;;;157.88;;
34836;SDS011;21053;50.848;4.652;2023-10-19T16:38:04;180.05;;;163.98;;
34836;SDS011;21053;50.848;4.652;2023-10-19T16:52:13;107.90;;;98.00;;
34836;SDS011;21053;50.848;4.652;2023-10-19T16:55:16;125.72;;;114.22;;
34836;SDS011;21053;50.848;4.652;2023-10-19T17:00:53;115.57;;;104.85;;
34836;SDS011;21053;50.848;4.652;2023-10-19T17:03:20;101.65;;;92.22;;
34836;SDS011;21053;50.848;4.652;2023-10-19T17:05:48;105.68;;;95.82;;
34836;SDS011;21053;50.848;4.652;2023-10-19T17:08:16;94.47;;;85.78;;
34836;SDS011;21053;50.848;4.652;2023-10-19T17:10:42;120.13;;;108.88;;
34836;SDS011;21053;50.848;4.652;2023-10-19T17:13:08;122.15;;;110.65;;
34836;SDS011;21053;50.848;4.652;2023-10-19T17:15:37;113.88;;;103.22;;
34836;SDS011;21053;50.848;4.652;2023-10-19T17:18:08;118.00;;;106.97;;
34836;SDS011;21053;50.848;4.652;2023-10-19T17:20:34;137.52;;;124.50;;
34836;SDS011;21053;50.848;4.652;2023-10-19T17:23:01;110.70;;;100.35;;
34836;SDS011;21053;50.848;4.652;2023-10-19T17:25:31;111.80;;;101.18;;
34836;SDS011;21053;50.848;4.652;2023-10-19T17:27:58;119.72;;;108.32;;
34836;SDS011;21053;50.848;4.652;2023-10-19T17:30:24;114.65;;;103.78;;
34836;SDS011;21053;50.848;4.652;2023-10-19T17:32:53;115.38;;;104.55;;
34836;SDS011;21053;50.848;4.652;2023-10-19T17:35:21;106.93;;;96.78;;
34836;SDS011;21053;50.848;4.652;2023-10-19T17:37:49;103.15;;;93.45;;
34836;SDS011;21053;50.848;4.652;2023-10-19T17:40:15;121.68;;;109.75;;
34836;SDS011;21053;50.848;4.652;2023-10-19T17:45:12;112.68;;;101.82;;
34836;SDS011;21053;50.848;4.652;2023-10-19T17:50:09;127.55;;;115.22;;
34836;SDS011;21053;50.848;4.652;2023-10-19T17:52:37;113.97;;;102.85;;
34836;SDS011;21053;50.848;4.652;2023-10-19T17:55:03;141.07;;;127.32;;
34836;SDS011;21053;50.848;4.652;2023-10-19T17:57:30;128.98;;;116.38;;
34836;SDS011;21053;50.848;4.652;2023-10-19T18:00:00;145.82;;;131.52;;
34836;SDS011;21053;50.848;4.652;2023-10-19T18:04:59;150.77;;;136.68;;
34836;SDS011;21053;50.848;4.652;2023-10-19T18:07:26;155.85;;;141.13;;
34836;SDS011;21053;50.848;4.652;2023-10-19T18:10:01;161.35;;;146.00;;
34836;SDS011;21053;50.848;4.652;2023-10-19T18:12:28;130.23;;;118.43;;
34836;SDS011;21053;50.848;4.652;2023-10-19T18:17:25;146.40;;;132.90;;
34836;SDS011;21053;50.848;4.652;2023-10-19T18:22:23;129.15;;;117.28;;
34836;SDS011;21053;50.848;4.652;2023-10-19T18:27:21;129.80;;;117.68;;
34836;SDS011;21053;50.848;4.652;2023-10-19T18:32:18;127.55;;;115.70;;
34836;SDS011;21053;50.848;4.652;2023-10-19T18:34:45;126.28;;;114.50;;
34836;SDS011;21053;50.848;4.652;2023-10-19T18:37:14;113.28;;;103.00;;
34836;SDS011;21053;50.848;4.652;2023-10-19T18:39:47;133.27;;;120.88;;
34836;SDS011;21053;50.848;4.652;2023-10-19T18:42:13;111.80;;;101.45;;
34836;SDS011;21053;50.848;4.652;2023-10-19T18:47:11;120.28;;;108.63;;
34836;SDS011;21053;50.848;4.652;2023-10-19T18:52:09;135.18;;;122.97;;
34836;SDS011;21053;50.848;4.652;2023-10-19T18:54:35;125.13;;;113.88;;
34836;SDS011;21053;50.848;4.652;2023-10-19T18:57:02;139.20;;;126.30;;
34836;SDS011;21053;50.848;4.652;2023-10-19T18:59:32;112.85;;;102.47;;
34836;SDS011;21053;50.848;4.652;2023-10-19T19:01:57;111.47;;;101.28;;
34836;SDS011;21053;50.848;4.652;2023-10-19T19:06:54;116.15;;;105.50;;
34836;SDS011;21053;50.848;4.652;2023-10-19T19:09:22;114.50;;;103.47;;
34836;SDS011;21053;50.848;4.652;2023-10-19T19:11:49;126.03;;;114.35;;
34836;SDS011;21053;50.848;4.652;2023-10-19T19:14:16;126.30;;;114.30;;
34836;SDS011;21053;50.848;4.652;2023-10-19T19:16:43;130.27;;;118.13;;